Pagrindinis puslapis
METAR-TAF:

METAR-TAF

Oro uostai :

Nueva Locha, Ekvadoras

platuma: 00-05-33N, ilguma: 076-52-10W, Aukštis: 299 m

Dabartinis oras

Ataskaita buvo paskelbta 1 valandą ir 2 minutes, ne 13:00 UTC
Vėjas 3 kt iš Vakarų/Šiaurės Vakarų
Temperatūra 24°C
Drėgmė 78%
Slėgis 1015 hPa
Matomumas 10 km arba daugiau
nėra debesų žemiau 1500 m ir nėra kamuolinių lietaus debesų

METAR: SENL 161300Z 30003KT CAVOK 24/20 Q1015 RMK A2997

Laikas: 09:02 (14:02 UTC)


TAF: trūkstamas

Orai ataskaitas ir orų prognozės (METAR, TAF).

turimą stotys yra geltonos ir raudonos taškus žemėlapyje.

Perkelti pele per norėdami pamatyti stoties vardą.

Tada spustelėkite, norėdami matyti oro stebėjimo ir prognozės.

Norėdami pakeisti žemėlapį: spustelėkite ant žalios mygtukų su juodo kryžiaus žemyn,; žalią mygtuką su brūkšneliu, jei norite nutolinti; arba žalių rodyklių gretimoms žemėlapius.


METAR-TAF: